This is the latest recevied weather packets stored in our database for station/object K1ADM. If no packets are shown the sender has not sent any weather packets the latest 10 day(s).
| Time | Temp. | Humidity | Pressure | Rain* | Wind** | Luminosity | Snow |
|---|---|---|---|---|---|---|---|
| 1777965904 | 10.56° C | 76% | 1007.2 hPa | 0 mm | - | - | - |
| 1777964103 | 11.11° C | 74% | 1007.1 hPa | 0 mm | - | - | - |
| 1777963203 | 11.11° C | 74% | 1007.1 hPa | 0 mm | - | - | - |
| 1777959903 | 10.56° C | 77% | 1007.1 hPa | 0 mm | - | - | - |
| 1777958403 | 10° C | 79% | 1006.8 hPa | 0 mm | - | - | - |
| 1777957203 | 10° C | 80% | 1006.8 hPa | 0 mm | - | - | - |
| 1777954504 | 10° C | 80% | 1006.5 hPa | 0 mm | - | - | - |
| 1777953904 | 10° C | 80% | 1006.5 hPa | 0 mm | - | - | - |
| 1777949104 | 11.11° C | 75% | 1006.2 hPa | 0 mm | - | - | - |
| 1777948804 | 11.67° C | 75% | 1006.2 hPa | 0 mm | - | - | - |
| 1777946104 | 12.78° C | 70% | 1006.2 hPa | 0 mm | - | - | - |
| 1777945804 | 12.78° C | 70% | 1006.1 hPa | 0 mm | - | - | - |
| 1777944302 | 13.33° C | 69% | 1005.8 hPa | 0 mm | - | - | - |
| 1777944001 | 13.33° C | 69% | 1005.8 hPa | 0 mm | - | - | - |
| 1777941302 | 14.44° C | 65% | 1005.4 hPa | 0 mm | - | - | - |
| 1777940701 | 14.44° C | 64% | 1005.1 hPa | 0 mm | - | - | - |
| 1777939502 | 15.56° C | 60% | 1005 hPa | 0 mm | - | - | - |
| 1777938602 | 15.56° C | 57% | 1004.8 hPa | 0 mm | - | - | - |
| 1777935902 | 17.22° C | 55% | 1004.4 hPa | 0 mm | - | - | - |
| 1777932902 | 18.89° C | 51% | 1004.3 hPa | 0 mm | - | - | - |
| 1777929902 | 17.78° C | 53% | 1004.3 hPa | 0 mm | - | - | - |
| 1777926602 | 17.78° C | 52% | 1004.1 hPa | 0 mm | - | - | - |
| 1777926302 | 17.78° C | 52% | 1004.2 hPa | 0 mm | - | - | - |
| 1777920903 | 16.11° C | 66% | 1004.7 hPa | 0 mm | - | - | - |
| 1777919702 | 14.44° C | 73% | 1005 hPa | 0 mm | - | - | - |
* Rain latest hour (hover to see other rain measurements)
** Current wind speed in m/s (hover to see current wind gust speed)